Time;durP1;ratioP1;P1;durP2;ratioP2;P2;SDS_P1;SDS_P2;PMS_P1;PMS_P2;Temp;Humidity;BMP_temperature;BMP_pressure;BME280_temperature;BME280_humidity;BME280_pressure;Samples;Min_cycle;Max_cycle;Signal;HPM_P1;HPM_P2
2021/09/24 00:01:45;;;;;;;21.92;1.80;;;11.60;99.90;;;;;;4855454;29;20034;-73
2021/09/24 00:04:12;;;;;;;11.02;2.97;;;11.60;99.90;;;;;;4871647;29;20097;-74
2021/09/24 00:06:42;;;;;;;14.45;1.95;;;11.60;99.90;;;;;;4854916;29;20029;-74
2021/09/24 00:09:09;;;;;;;9.77;2.90;;;11.50;99.90;;;;;;4870989;29;20398;-73
2021/09/24 00:11:36;;;;;;;15.13;2.63;;;11.60;99.90;;;;;;4872228;29;20030;-74
2021/09/24 00:14:02;;;;;;;18.50;3.22;;;11.50;99.90;;;;;;4872137;29;20486;-73
2021/09/24 00:16:28;;;;;;;12.88;2.88;;;11.50;99.90;;;;;;4872267;29;20034;-73
2021/09/24 00:18:53;;;;;;;15.25;2.55;;;11.50;99.90;;;;;;4855449;29;20033;-73
2021/09/24 00:21:19;;;;;;;12.68;2.28;;;11.50;99.90;;;;;;4854930;29;20034;-74
2021/09/24 00:23:45;;;;;;;8.13;2.13;;;11.50;99.90;;;;;;4872032;29;20043;-73
2021/09/24 00:26:10;;;;;;;8.02;2.42;;;11.50;99.90;;;;;;4871787;29;20029;-73
2021/09/24 00:28:36;;;;;;;6.00;1.48;;;11.40;99.90;;;;;;4871601;29;20030;-73
2021/09/24 00:31:03;;;;;;;15.13;2.53;;;11.40;99.90;;;;;;4871503;29;20049;-74
2021/09/24 00:33:28;;;;;;;19.10;2.97;;;11.40;99.90;;;;;;4872193;29;20395;-73
2021/09/24 00:35:55;;;;;;;25.65;2.80;;;11.40;99.90;;;;;;4871250;29;20029;-73
2021/09/24 00:38:21;;;;;;;19.42;2.85;;;11.40;99.90;;;;;;4871410;29;20513;-73
2021/09/24 00:40:47;;;;;;;18.38;2.78;;;11.40;99.90;;;;;;4872108;29;20029;-73
2021/09/24 00:43:12;;;;;;;25.45;1.88;;;11.40;99.90;;;;;;4871412;29;20045;-73
2021/09/24 00:45:38;;;;;;;11.18;2.15;;;11.40;99.90;;;;;;4870570;29;20041;-74
2021/09/24 00:48:04;;;;;;;15.15;3.10;;;11.30;99.90;;;;;;4871664;29;20070;-74
2021/09/24 00:50:30;;;;;;;12.75;2.25;;;11.30;99.90;;;;;;4871821;29;20026;-73
2021/09/24 00:52:55;;;;;;;7.30;1.67;;;11.30;99.90;;;;;;4872340;29;20049;-73
2021/09/24 00:55:22;;;;;;;19.85;2.58;;;11.30;99.90;;;;;;4875224;29;20036;-74
2021/09/24 00:57:48;;;;;;;13.20;1.58;;;11.30;99.90;;;;;;4875518;29;20093;-74
2021/09/24 01:00:14;;;;;;;19.85;2.83;;;11.30;99.90;;;;;;4875335;29;20022;-72
2021/09/24 01:02:40;;;;;;;13.82;2.67;;;11.30;99.90;;;;;;4873049;29;20045;-74
2021/09/24 01:05:09;;;;;;;14.95;2.40;;;11.30;99.90;;;;;;4875593;29;20045;-74
2021/09/24 01:07:39;;;;;;;17.45;2.95;;;11.30;99.90;;;;;;4875012;29;20104;-74
2021/09/24 01:10:07;;;;;;;25.42;2.70;;;11.30;99.90;;;;;;4874976;29;20483;-73
2021/09/24 01:12:34;;;;;;;15.00;3.00;;;11.30;99.90;;;;;;4875395;29;20037;-74
2021/09/24 01:15:04;;;;;;;7.40;2.17;;;11.30;99.90;;;;;;4875152;29;20025;-74
2021/09/24 01:17:29;;;;;;;10.02;2.88;;;11.30;99.90;;;;;;4875023;29;20044;-74
2021/09/24 01:19:55;;;;;;;28.05;2.35;;;11.30;99.90;;;;;;4875220;29;20026;-73
2021/09/24 01:22:21;;;;;;;28.63;3.28;;;11.30;99.90;;;;;;4874764;29;20078;-74
2021/09/24 01:24:46;;;;;;;8.18;3.20;;;11.20;99.90;;;;;;4874770;29;20050;-74
2021/09/24 01:27:12;;;;;;;25.60;3.17;;;11.20;99.90;;;;;;4875028;29;20475;-73
2021/09/24 01:29:38;;;;;;;14.70;2.60;;;11.20;99.90;;;;;;4874815;29;20041;-73
2021/09/24 01:32:04;;;;;;;13.75;2.97;;;11.20;99.90;;;;;;4874355;29;20152;-73
2021/09/24 01:34:30;;;;;;;12.25;3.58;;;11.20;99.90;;;;;;4875044;29;20402;-73
2021/09/24 01:36:55;;;;;;;25.95;4.30;;;11.10;99.90;;;;;;4857788;29;20033;-74
2021/09/24 01:39:21;;;;;;;8.27;2.60;;;11.20;99.90;;;;;;4874796;29;20039;-74
2021/09/24 01:41:49;;;;;;;18.08;3.70;;;11.20;99.90;;;;;;4874805;29;20033;-74
2021/09/24 01:44:15;;;;;;;18.48;2.92;;;11.10;99.90;;;;;;4874188;29;20041;-73
2021/09/24 01:46:43;;;;;;;16.42;3.50;;;11.10;99.90;;;;;;4857764;29;20033;-73
2021/09/24 01:49:12;;;;;;;14.77;3.13;;;11.10;99.90;;;;;;4874320;29;20029;-75
2021/09/24 01:51:41;;;;;;;9.27;2.85;;;11.10;99.90;;;;;;4874359;29;20102;-74
2021/09/24 01:54:07;;;;;;;17.05;2.65;;;11.20;99.90;;;;;;4874341;29;20034;-74
2021/09/24 01:56:34;;;;;;;19.90;2.97;;;11.20;99.90;;;;;;4874358;29;20051;-75
2021/09/24 01:58:59;;;;;;;23.85;3.40;;;11.10;99.90;;;;;;4874467;29;20083;-73
2021/09/24 02:01:25;;;;;;;18.35;2.78;;;11.10;99.90;;;;;;4874474;29;20033;-74
2021/09/24 02:03:51;;;;;;;14.82;3.08;;;11.10;99.90;;;;;;4873784;29;20037;-73
2021/09/24 02:06:16;;;;;;;18.35;2.55;;;11.10;99.90;;;;;;4871969;29;20037;-74
2021/09/24 02:08:42;;;;;;;22.48;3.83;;;11.20;99.90;;;;;;4874195;29;20040;-74
2021/09/24 02:11:10;;;;;;;8.77;2.88;;;11.10;99.90;;;;;;4873988;29;20029;-75
2021/09/24 02:13:38;;;;;;;13.85;2.95;;;11.10;99.90;;;;;;4874411;29;20057;-74
2021/09/24 02:16:04;;;;;;;10.70;2.47;;;11.20;99.90;;;;;;4874384;29;20028;-75
2021/09/24 02:18:29;;;;;;;25.40;3.83;;;11.20;99.90;;;;;;4872032;29;20536;-73
2021/09/24 02:20:55;;;;;;;8.10;1.92;;;11.20;99.90;;;;;;4857515;29;20030;-74
2021/09/24 02:23:21;;;;;;;4.65;2.20;;;11.20;99.90;;;;;;4857502;29;20052;-74
2021/09/24 02:25:46;;;;;;;9.52;2.67;;;11.20;99.90;;;;;;4856967;29;20438;-74
2021/09/24 02:28:12;;;;;;;20.40;3.10;;;11.20;99.90;;;;;;4874119;29;20090;-73
2021/09/24 02:30:37;;;;;;;8.35;2.67;;;11.20;99.90;;;;;;4873232;29;20054;-74
2021/09/24 02:33:03;;;;;;;15.85;3.03;;;11.20;99.90;;;;;;4857317;29;20029;-75
2021/09/24 02:35:29;;;;;;;6.07;2.40;;;11.20;99.90;;;;;;4874014;29;20033;-73
2021/09/24 02:37:54;;;;;;;10.35;2.40;;;11.20;99.90;;;;;;4872837;29;20033;-73
2021/09/24 02:40:20;;;;;;;9.68;1.98;;;11.20;99.90;;;;;;4873428;29;20030;-74
2021/09/24 02:42:46;;;;;;;4.53;1.88;;;11.20;99.90;;;;;;4873756;29;20125;-73
2021/09/24 02:45:12;;;;;;;6.78;1.65;;;11.30;99.90;;;;;;4873167;29;20070;-73
2021/09/24 02:47:38;;;;;;;11.23;2.28;;;11.30;99.90;;;;;;4874356;29;20026;-74
2021/09/24 02:50:07;;;;;;;14.38;2.78;;;11.30;99.90;;;;;;4873795;29;20097;-75
2021/09/24 02:52:33;;;;;;;14.15;2.15;;;11.30;99.90;;;;;;4873629;29;20056;-74
2021/09/24 02:54:58;;;;;;;6.38;2.08;;;11.30;99.90;;;;;;4873847;29;20467;-73
2021/09/24 02:57:24;;;;;;;30.40;2.25;;;11.30;99.90;;;;;;4873545;29;20034;-73
2021/09/24 02:59:49;;;;;;;26.23;2.20;;;11.30;99.90;;;;;;4872686;29;20045;-74
2021/09/24 03:02:15;;;;;;;13.90;1.95;;;11.40;99.90;;;;;;4873027;29;20723;-74
2021/09/24 03:04:41;;;;;;;17.55;3.35;;;11.40;99.90;;;;;;4873363;29;20061;-74
2021/09/24 03:07:06;;;;;;;14.55;2.33;;;11.40;99.90;;;;;;4872776;29;20044;-75
2021/09/24 03:09:32;;;;;;;7.80;1.80;;;11.40;99.90;;;;;;4873573;29;20078;-73
2021/09/24 03:11:58;;;;;;;7.80;2.80;;;11.50;99.90;;;;;;4871773;29;20061;-75
2021/09/24 03:14:24;;;;;;;10.23;2.20;;;11.50;99.90;;;;;;4872823;29;20045;-74
2021/09/24 03:16:49;;;;;;;10.23;1.88;;;11.50;99.90;;;;;;4872883;29;20072;-74
2021/09/24 03:19:19;;;;;;;10.07;2.22;;;11.50;99.90;;;;;;4872974;29;20482;-73
2021/09/24 03:21:45;;;;;;;5.00;1.60;;;11.50;99.90;;;;;;4872672;29;20022;-74
2021/09/24 03:24:20;;;;;;;14.48;1.90;;;11.50;99.90;;;;;;4873084;29;20033;-75
2021/09/24 03:26:46;;;;;;;3.67;1.45;;;11.50;99.90;;;;;;4872898;29;20032;-74
2021/09/24 03:29:12;;;;;;;20.27;1.95;;;11.50;99.90;;;;;;4872776;29;20033;-75
2021/09/24 03:31:40;;;;;;;5.15;1.17;;;11.50;99.90;;;;;;4872634;29;20064;-75
2021/09/24 03:34:07;;;;;;;6.93;1.88;;;11.50;99.90;;;;;;4872486;29;20033;-75
2021/09/24 03:36:34;;;;;;;10.65;2.40;;;11.50;99.90;;;;;;4872304;29;20141;-74
2021/09/24 03:39:01;;;;;;;10.15;2.55;;;11.50;99.90;;;;;;4873004;29;20026;-75
2021/09/24 03:41:27;;;;;;;6.03;2.08;;;11.60;99.90;;;;;;4870874;29;20030;-74
2021/09/24 03:43:53;;;;;;;18.13;2.85;;;11.60;99.90;;;;;;4871828;29;20069;-74
2021/09/24 03:46:18;;;;;;;5.65;2.08;;;11.60;99.90;;;;;;4872130;29;20033;-74
2021/09/24 03:48:44;;;;;;;6.95;1.63;;;11.60;99.90;;;;;;4871813;29;20022;-74
2021/09/24 03:51:13;;;;;;;14.38;2.33;;;11.60;99.90;;;;;;4855721;29;20093;-74
2021/09/24 03:53:38;;;;;;;10.35;1.60;;;11.70;99.90;;;;;;4872468;29;20029;-75
2021/09/24 03:56:04;;;;;;;6.28;1.83;;;11.70;99.90;;;;;;4872241;29;20030;-75
2021/09/24 03:58:30;;;;;;;7.63;1.88;;;11.70;99.90;;;;;;4872431;29;20037;-74
2021/09/24 04:00:55;;;;;;;9.48;2.17;;;11.80;99.90;;;;;;4871828;29;20040;-74
2021/09/24 04:03:25;;;;;;;10.77;1.85;;;11.80;99.90;;;;;;4855233;29;20174;-75
2021/09/24 04:05:50;;;;;;;5.68;1.23;;;11.90;99.90;;;;;;4878055;29;20041;-75
2021/09/24 04:08:16;;;;;;;7.65;1.65;;;11.90;99.90;;;;;;4890300;29;20040;-74
2021/09/24 04:10:44;;;;;;;12.40;3.00;;;11.90;99.90;;;;;;4890039;29;20417;-74
2021/09/24 04:13:10;;;;;;;11.43;1.27;;;11.90;99.90;;;;;;4890835;29;20029;-73
2021/09/24 04:15:39;;;;;;;5.20;1.25;;;12.00;99.90;;;;;;4873433;29;20033;-76
2021/09/24 04:18:05;;;;;;;4.18;1.08;;;12.00;99.90;;;;;;4870831;29;20040;-74
2021/09/24 04:20:36;;;;;;;15.13;1.25;;;12.00;99.90;;;;;;4889708;29;20029;-74
2021/09/24 04:23:02;;;;;;;11.60;2.47;;;12.00;99.90;;;;;;4890386;29;20101;-75
2021/09/24 04:25:29;;;;;;;16.65;2.00;;;12.10;99.90;;;;;;4890192;29;20075;-74
2021/09/24 04:27:55;;;;;;;8.20;1.73;;;12.00;99.90;;;;;;4872794;29;20033;-74
2021/09/24 04:30:21;;;;;;;15.23;2.28;;;12.00;99.90;;;;;;4889455;29;20040;-74
2021/09/24 04:32:47;;;;;;;22.67;2.85;;;12.10;99.90;;;;;;4889735;29;20053;-74
2021/09/24 04:35:13;;;;;;;10.57;1.55;;;12.10;99.90;;;;;;4873324;29;20032;-74
2021/09/24 04:37:39;;;;;;;13.35;1.83;;;12.10;99.90;;;;;;4890145;29;20033;-74
2021/09/24 04:40:05;;;;;;;10.52;1.35;;;12.10;99.90;;;;;;4890500;29;20071;-74
2021/09/24 04:42:32;;;;;;;9.88;2.20;;;12.10;99.90;;;;;;4890532;29;20453;-74
2021/09/24 04:45:04;;;;;;;29.35;3.53;;;12.10;99.90;;;;;;4889923;29;20041;-75
2021/09/24 04:47:30;;;;;;;13.32;1.40;;;12.10;99.90;;;;;;4890708;29;20032;-75
2021/09/24 04:49:56;;;;;;;12.52;2.35;;;12.20;99.90;;;;;;4890261;29;20033;-73
2021/09/24 04:52:21;;;;;;;9.90;1.50;;;12.20;99.90;;;;;;4890116;29;20375;-75
2021/09/24 04:54:48;;;;;;;6.43;2.08;;;12.20;99.90;;;;;;4890989;29;20037;-76
2021/09/24 04:57:14;;;;;;;16.92;1.85;;;12.30;99.90;;;;;;4873486;29;20471;-74
2021/09/24 04:59:40;;;;;;;7.25;1.58;;;12.30;99.90;;;;;;4890060;29;20443;-74
2021/09/24 05:02:05;;;;;;;9.82;1.60;;;12.30;99.90;;;;;;4873337;29;20029;-74
2021/09/24 05:04:31;;;;;;;8.15;2.92;;;12.30;99.90;;;;;;4890259;29;20045;-73
2021/09/24 05:06:57;;;;;;;9.18;1.25;;;12.30;99.90;;;;;;4873117;29;20029;-73
2021/09/24 05:09:22;;;;;;;14.48;2.15;;;12.30;99.90;;;;;;4889732;29;20029;-73
2021/09/24 05:11:48;;;;;;;13.63;2.08;;;12.30;99.90;;;;;;4889504;29;20033;-72
2021/09/24 05:14:14;;;;;;;11.57;2.00;;;12.30;99.90;;;;;;4889403;29;20106;-72
2021/09/24 05:16:39;;;;;;;17.17;1.35;;;12.30;99.90;;;;;;4890275;29;20033;-73
2021/09/24 05:19:05;;;;;;;2.55;0.98;;;12.30;99.90;;;;;;4875932;29;20182;-74
2021/09/24 05:21:31;;;;;;;9.13;1.55;;;12.30;99.90;;;;;;4888817;29;20061;-76
2021/09/24 05:23:57;;;;;;;8.00;2.33;;;12.30;99.90;;;;;;4870808;29;20060;-73
2021/09/24 05:26:22;;;;;;;14.70;2.15;;;12.40;99.90;;;;;;4878326;29;20033;-73
2021/09/24 05:28:48;;;;;;;13.38;2.45;;;12.50;99.90;;;;;;4885732;29;20040;-74
2021/09/24 05:31:14;;;;;;;10.20;1.88;;;12.40;99.90;;;;;;4871099;29;20058;-73
2021/09/24 05:33:39;;;;;;;19.23;2.55;;;12.40;99.90;;;;;;4871118;29;20033;-75
2021/09/24 05:36:05;;;;;;;20.95;1.75;;;12.50;99.90;;;;;;4878274;29;20048;-74
2021/09/24 05:38:31;;;;;;;7.55;2.30;;;12.50;99.90;;;;;;4873592;29;20112;-73
2021/09/24 05:40:57;;;;;;;9.25;2.35;;;12.60;99.90;;;;;;4891569;29;20061;-73
2021/09/24 05:43:22;;;;;;;3.50;1.70;;;12.60;99.90;;;;;;4887231;29;20696;-74
2021/09/24 05:45:48;;;;;;;7.00;2.03;;;12.60;99.90;;;;;;4870070;29;20486;-74
2021/09/24 05:48:14;;;;;;;17.65;2.60;;;12.70;99.90;;;;;;4863106;29;20034;-74
2021/09/24 05:50:39;;;;;;;3.55;1.27;;;12.70;99.90;;;;;;4891050;29;20044;-75
2021/09/24 05:53:05;;;;;;;10.75;2.70;;;12.70;99.90;;;;;;4890155;29;20040;-74
2021/09/24 05:55:30;;;;;;;5.38;1.63;;;12.70;99.90;;;;;;4886447;29;20048;-74
2021/09/24 05:57:56;;;;;;;10.05;2.08;;;12.80;99.90;;;;;;4892576;29;20089;-74
2021/09/24 06:00:22;;;;;;;7.03;1.90;;;12.80;99.90;;;;;;4875849;29;20033;-74
2021/09/24 06:02:49;;;;;;;6.18;1.42;;;12.80;99.90;;;;;;4878247;29;20040;-74
2021/09/24 06:05:18;;;;;;;10.90;1.65;;;12.80;99.90;;;;;;4873001;29;20037;-73
2021/09/24 06:07:44;;;;;;;17.10;2.53;;;12.90;99.90;;;;;;4857413;29;20053;-74
2021/09/24 06:10:11;;;;;;;22.15;2.67;;;12.90;99.90;;;;;;4889300;29;20474;-74
2021/09/24 06:12:38;;;;;;;5.05;1.85;;;12.90;99.90;;;;;;4893105;29;20064;-74
2021/09/24 06:15:05;;;;;;;19.40;3.83;;;13.00;99.90;;;;;;4892144;29;20037;-74
2021/09/24 06:17:31;;;;;;;4.57;1.55;;;13.00;99.90;;;;;;4885047;29;20122;-73
2021/09/24 06:19:57;;;;;;;12.23;2.33;;;13.00;99.90;;;;;;4863879;29;20029;-74
2021/09/24 06:22:24;;;;;;;5.25;1.83;;;13.00;99.90;;;;;;4883946;29;20060;-75
2021/09/24 06:24:50;;;;;;;3.47;1.50;;;13.10;99.90;;;;;;4884733;29;20102;-73
2021/09/24 06:27:16;;;;;;;22.45;2.15;;;13.10;99.90;;;;;;4885073;29;20029;-74
2021/09/24 06:29:52;;;;;;;23.63;2.55;;;13.10;99.90;;;;;;4872721;29;20048;-73
2021/09/24 06:32:18;;;;;;;11.23;1.77;;;13.20;99.90;;;;;;4891468;29;20064;-73
2021/09/24 06:34:45;;;;;;;7.38;1.52;;;13.20;99.90;;;;;;4891381;29;20037;-75
2021/09/24 06:37:11;;;;;;;14.18;2.83;;;13.20;99.90;;;;;;4892279;29;20032;-74
2021/09/24 06:39:44;;;;;;;5.50;1.52;;;13.20;99.90;;;;;;4891449;29;20040;-76
2021/09/24 06:42:10;;;;;;;7.43;2.15;;;13.20;99.90;;;;;;4892193;29;20067;-73
2021/09/24 06:44:36;;;;;;;9.75;2.03;;;13.20;99.90;;;;;;4873424;29;20500;-75
2021/09/24 06:47:03;;;;;;;13.80;2.60;;;13.20;99.90;;;;;;4884455;29;20057;-74
2021/09/24 06:49:29;;;;;;;11.40;2.20;;;13.20;99.90;;;;;;4878470;29;20116;-73
2021/09/24 06:51:58;;;;;;;21.42;2.13;;;13.30;99.90;;;;;;4867214;29;20367;-73
2021/09/24 06:54:26;;;;;;;9.48;2.45;;;13.30;99.90;;;;;;4875305;29;20108;-74
2021/09/24 06:56:53;;;;;;;3.05;1.20;;;13.30;99.90;;;;;;4872328;29;20053;-74
2021/09/24 06:59:19;;;;;;;6.53;2.28;;;13.30;99.90;;;;;;4891417;29;20029;-73
2021/09/24 07:01:45;;;;;;;11.68;2.35;;;13.40;99.90;;;;;;4881369;29;20073;-74
2021/09/24 07:04:14;;;;;;;13.05;2.13;;;13.40;99.90;;;;;;4882446;29;20033;-74
2021/09/24 07:06:41;;;;;;;11.57;2.45;;;13.50;99.90;;;;;;4882573;29;20060;-73
2021/09/24 07:09:09;;;;;;;13.70;2.20;;;13.60;99.90;;;;;;4883902;29;20037;-73
2021/09/24 07:11:36;;;;;;;4.05;2.08;;;13.60;99.90;;;;;;4887310;29;20037;-74
2021/09/24 07:14:13;;;;;;;6.97;2.55;;;13.60;99.90;;;;;;4887431;29;20030;-73
2021/09/24 07:16:39;;;;;;;14.77;3.00;;;13.70;99.90;;;;;;4872755;29;20064;-74
2021/09/24 07:19:14;;;;;;;6.35;2.03;;;13.80;99.90;;;;;;4884301;29;20057;-74
2021/09/24 07:21:40;;;;;;;12.13;2.45;;;13.80;99.90;;;;;;4891577;29;20037;-73
2021/09/24 07:24:06;;;;;;;13.07;2.92;;;13.90;99.90;;;;;;4873901;29;20044;-74
2021/09/24 07:26:32;;;;;;;3.58;2.00;;;13.90;99.90;;;;;;4891103;29;20040;-72
2021/09/24 07:28:59;;;;;;;8.30;2.05;;;14.00;99.90;;;;;;4891412;29;20029;-73
2021/09/24 07:31:25;;;;;;;14.88;2.65;;;14.10;99.90;;;;;;4874084;29;20081;-73
2021/09/24 07:33:51;;;;;;;10.65;2.40;;;14.20;99.90;;;;;;4891296;29;20033;-75
2021/09/24 07:36:18;;;;;;;7.72;1.45;;;14.20;99.90;;;;;;4889006;29;20148;-73
2021/09/24 07:38:45;;;;;;;9.75;2.25;;;14.30;99.90;;;;;;4888937;29;20033;-75
2021/09/24 07:41:12;;;;;;;5.30;1.67;;;14.30;99.90;;;;;;4888469;29;20480;-75
2021/09/24 07:43:38;;;;;;;15.20;2.35;;;14.40;99.90;;;;;;4877060;29;20040;-73
2021/09/24 07:46:04;;;;;;;12.80;2.05;;;14.40;99.90;;;;;;4873227;29;20040;-72
2021/09/24 07:48:31;;;;;;;2.42;1.48;;;14.40;99.90;;;;;;4891036;29;20089;-74
2021/09/24 07:50:56;;;;;;;5.32;1.98;;;14.50;99.90;;;;;;4891262;29;20057;-73
2021/09/24 07:53:22;;;;;;;5.95;1.63;;;14.50;99.90;;;;;;4882857;29;20064;-75
2021/09/24 07:55:47;;;;;;;3.95;2.08;;;14.50;99.90;;;;;;4875079;29;20033;-74
2021/09/24 07:58:13;;;;;;;5.70;2.15;;;14.60;99.90;;;;;;4877386;29;20093;-74
2021/09/24 08:00:39;;;;;;;9.73;2.72;;;14.60;99.90;;;;;;4882318;29;20577;-76
2021/09/24 08:03:05;;;;;;;7.47;1.65;;;14.60;99.90;;;;;;4882754;29;20064;-76
2021/09/24 08:05:32;;;;;;;9.85;3.20;;;14.60;99.90;;;;;;4871997;29;20044;-75
2021/09/24 08:07:57;;;;;;;5.97;2.00;;;14.70;99.90;;;;;;4869434;29;20037;-76
2021/09/24 08:10:24;;;;;;;14.25;3.67;;;14.80;99.90;;;;;;4876532;29;20037;-72
2021/09/24 08:12:53;;;;;;;5.70;2.05;;;14.80;99.90;;;;;;4882393;29;20029;-75
2021/09/24 08:15:19;;;;;;;10.65;2.17;;;14.80;99.90;;;;;;4885788;29;20037;-75
2021/09/24 08:17:45;;;;;;;5.70;2.53;;;15.00;99.90;;;;;;4888591;29;20029;-75
2021/09/24 08:20:13;;;;;;;10.52;2.38;;;15.00;99.90;;;;;;4882621;29;20530;-75
2021/09/24 08:22:38;;;;;;;7.95;2.35;;;15.30;99.90;;;;;;4885892;29;20053;-75
2021/09/24 08:25:07;;;;;;;6.00;2.33;;;15.50;99.90;;;;;;4886950;29;20048;-76
2021/09/24 08:27:33;;;;;;;11.38;3.17;;;15.60;99.90;;;;;;4881439;29;20025;-75
2021/09/24 08:29:59;;;;;;;10.40;2.78;;;15.70;99.90;;;;;;4867793;29;20542;-74
2021/09/24 08:32:25;;;;;;;6.25;2.72;;;15.80;99.90;;;;;;4854611;29;20053;-75
2021/09/24 08:34:51;;;;;;;8.02;2.25;;;15.90;99.90;;;;;;4873418;29;20080;-77
2021/09/24 08:37:20;;;;;;;6.13;2.20;;;16.00;99.90;;;;;;4862984;29;20037;-74
2021/09/24 08:39:46;;;;;;;7.57;2.17;;;16.10;99.90;;;;;;4882959;29;20040;-73
2021/09/24 08:42:12;;;;;;;3.95;1.80;;;16.10;99.90;;;;;;4874169;29;20037;-75
2021/09/24 08:44:39;;;;;;;9.23;2.42;;;16.00;99.90;;;;;;4887938;29;20047;-75
2021/09/24 08:47:04;;;;;;;7.28;1.73;;;16.20;99.90;;;;;;4890050;29;20033;-73
2021/09/24 08:49:34;;;;;;;8.93;2.63;;;16.20;99.90;;;;;;4889777;29;20128;-77
2021/09/24 08:52:01;;;;;;;7.35;2.30;;;16.30;99.90;;;;;;4871840;29;20116;-74
2021/09/24 08:54:26;;;;;;;9.13;2.25;;;16.30;99.90;;;;;;4890266;29;20055;-75
2021/09/24 08:56:52;;;;;;;4.25;2.35;;;16.30;99.90;;;;;;4890042;29;20036;-73
2021/09/24 08:59:19;;;;;;;5.38;2.42;;;16.50;99.90;;;;;;4885385;29;20033;-72
2021/09/24 09:02:03;;;;;;;5.05;2.30;;;16.50;99.90;;;;;;4887797;29;20471;-75
2021/09/24 09:04:42;;;;;;;8.18;3.05;;;16.40;99.90;;;;;;4872797;29;20529;-75
2021/09/24 09:07:11;;;;;;;7.63;2.45;;;16.40;99.90;;;;;;4870300;29;20037;-76
2021/09/24 09:09:44;;;;;;;6.65;1.92;;;16.30;99.90;;;;;;4871554;29;20028;-77
2021/09/24 09:12:14;;;;;;;6.45;2.28;;;16.20;99.90;;;;;;4871308;29;20057;-77
2021/09/24 09:14:42;;;;;;;17.83;2.88;;;16.10;99.90;;;;;;4889705;29;20068;-75
2021/09/24 09:17:29;;;;;;;7.72;2.70;;;16.10;99.90;;;;;;4892933;29;20479;-80
2021/09/24 09:20:22;;;;;;;10.77;3.22;;;16.10;99.90;;;;;;4876887;29;20054;-79
2021/09/24 09:23:10;;;;;;;8.95;3.30;;;16.10;99.90;;;;;;4893512;29;20085;-74
2021/09/24 09:25:44;;;;;;;10.77;3.10;;;16.10;99.90;;;;;;4893598;29;20045;-75
2021/09/24 09:28:14;;;;;;;7.18;3.03;;;16.20;99.90;;;;;;4893764;29;20044;-76
2021/09/24 09:30:42;;;;;;;5.53;2.28;;;16.20;99.90;;;;;;4892926;29;20060;-75
2021/09/24 09:33:17;;;;;;;5.95;2.70;;;16.30;99.90;;;;;;4893706;29;20092;-76
2021/09/24 09:35:55;;;;;;;8.30;2.70;;;16.30;99.90;;;;;;4893439;29;20073;-76
2021/09/24 09:38:31;;;;;;;7.80;3.38;;;16.30;99.90;;;;;;4893047;29;20033;-74
2021/09/24 09:41:06;;;;;;;6.63;3.03;;;16.30;99.90;;;;;;4893536;29;20061;-74
2021/09/24 09:43:44;;;;;;;8.63;2.45;;;16.40;99.90;;;;;;4883707;29;20065;-75
2021/09/24 09:46:31;;;;;;;12.90;3.45;;;16.50;99.90;;;;;;4876379;29;20111;-76
2021/09/24 09:49:16;;;;;;;8.70;2.90;;;16.60;99.90;;;;;;4893518;29;20105;-74
2021/09/24 09:51:44;;;;;;;7.63;3.15;;;16.60;99.90;;;;;;4892398;29;20085;-75
2021/09/24 09:54:24;;;;;;;11.38;2.72;;;16.70;99.90;;;;;;4893396;29;20033;-74
2021/09/24 09:57:18;;;;;;;3.25;2.15;;;16.70;99.90;;;;;;4886295;29;20036;-75
2021/09/24 09:59:52;;;;;;;6.17;3.23;;;16.70;99.90;;;;;;4873948;29;20093;-73
2021/09/24 10:02:22;;;;;;;10.00;2.60;;;16.80;99.90;;;;;;4880210;29;20036;-75
2021/09/24 10:04:53;;;;;;;4.82;2.63;;;16.80;99.90;;;;;;4882513;29;20041;-74
2021/09/24 10:07:26;;;;;;;8.90;3.08;;;16.90;99.90;;;;;;4885149;29;20021;-73
2021/09/24 10:10:13;;;;;;;10.10;2.93;;;17.00;99.90;;;;;;4884630;29;20041;-73
2021/09/24 10:12:39;;;;;;;14.50;2.80;;;17.20;99.90;;;;;;4887382;29;20345;-75
2021/09/24 10:15:09;;;;;;;6.55;2.63;;;17.20;99.90;;;;;;4891246;29;20048;-76
2021/09/24 10:17:36;;;;;;;6.70;2.28;;;17.30;99.90;;;;;;4890967;29;20029;-74
2021/09/24 10:20:05;;;;;;;11.70;3.10;;;17.40;99.90;;;;;;4887155;29;20039;-75
2021/09/24 10:22:31;;;;;;;8.60;2.42;;;17.40;99.90;;;;;;4891892;29;20143;-74
2021/09/24 10:24:57;;;;;;;4.47;2.75;;;17.50;99.90;;;;;;4866622;29;20068;-73
2021/09/24 10:27:38;;;;;;;5.13;2.72;;;17.60;99.90;;;;;;4871947;29;20048;-72
2021/09/24 10:30:16;;;;;;;8.75;3.30;;;17.70;99.90;;;;;;4873286;29;20030;-74
2021/09/24 10:32:59;;;;;;;9.20;3.00;;;17.80;99.90;;;;;;4885843;29;20056;-73
2021/09/24 10:35:49;;;;;;;4.05;2.05;;;18.00;99.90;;;;;;4890001;29;20078;-74
2021/09/24 10:38:16;;;;;;;16.20;2.72;;;18.20;99.90;;;;;;4891039;29;20383;-73
2021/09/24 10:41:05;;;;;;;9.73;3.00;;;18.30;99.90;;;;;;4890056;29;20025;-74
2021/09/24 10:43:52;;;;;;;6.60;2.75;;;18.40;99.90;;;;;;4870800;29;20195;-74
2021/09/24 10:46:24;;;;;;;8.45;3.08;;;18.40;99.90;;;;;;4883761;29;20049;-72
2021/09/24 10:49:16;;;;;;;6.35;2.45;;;18.40;99.90;;;;;;4881195;29;20111;-75
2021/09/24 10:52:00;;;;;;;7.35;2.80;;;18.40;99.90;;;;;;4871523;29;20043;-75
2021/09/24 10:54:26;;;;;;;7.18;2.60;;;18.30;99.90;;;;;;4873364;29;20044;-72
2021/09/24 10:57:08;;;;;;;8.10;2.60;;;18.20;99.90;;;;;;4890331;29;20029;-74
2021/09/24 10:59:34;;;;;;;7.32;2.97;;;18.20;99.90;;;;;;4890896;29;20575;-74
2021/09/24 11:02:42;;;;;;;6.45;2.33;;;18.10;99.90;;;;;;4889473;29;20502;-74
2021/09/24 11:05:09;;;;;;;6.22;2.53;;;18.10;99.90;;;;;;4871512;29;20405;-73
2021/09/24 11:07:36;;;;;;;4.50;2.40;;;18.10;99.90;;;;;;4889008;29;20037;-75
2021/09/24 11:10:06;;;;;;;5.70;2.33;;;18.10;99.90;;;;;;4890037;29;20041;-74
2021/09/24 11:12:33;;;;;;;7.07;2.70;;;18.20;99.90;;;;;;4890023;29;20040;-74
2021/09/24 11:15:13;;;;;;;6.05;2.88;;;18.20;99.90;;;;;;4889583;29;20033;-75
2021/09/24 11:17:41;;;;;;;7.40;1.88;;;18.20;99.90;;;;;;4874016;29;20076;-76
2021/09/24 11:20:35;;;;;;;6.28;2.55;;;18.20;99.90;;;;;;4889125;29;20033;-76
2021/09/24 11:23:34;;;;;;;5.13;2.83;;;18.20;99.90;;;;;;4871351;29;20051;-76
2021/09/24 11:26:11;;;;;;;4.03;1.88;;;18.10;99.90;;;;;;4890387;29;20439;-74
2021/09/24 11:28:37;;;;;;;7.95;2.67;;;18.10;99.90;;;;;;4890307;29;20078;-72
2021/09/24 11:31:04;;;;;;;5.22;1.65;;;18.10;99.90;;;;;;4887183;29;20059;-74
2021/09/24 11:33:49;;;;;;;4.80;2.13;;;18.10;99.90;;;;;;4889461;29;20032;-72
2021/09/24 11:36:34;;;;;;;;;;;18.00;99.90;;;;;;4872744;29;20037;-72
2021/09/24 11:39:04;;;;;;;4.90;2.47;;;18.00;99.90;;;;;;4870494;29;19919;-74
2021/09/24 11:41:30;;;;;;;15.07;3.10;;;18.00;99.90;;;;;;4870540;29;20029;-75
2021/09/24 11:43:57;;;;;;;6.07;2.03;;;18.00;99.90;;;;;;4854082;29;20044;-73
2021/09/24 11:46:31;;;;;;;7.10;2.38;;;18.00;99.90;;;;;;4870803;29;20040;-77
2021/09/24 11:48:56;;;;;;;4.70;2.13;;;18.10;99.90;;;;;;4854411;29;20033;-76
2021/09/24 11:51:24;;;;;;;4.63;2.63;;;18.10;99.90;;;;;;4870870;29;20136;-75
2021/09/24 11:53:56;;;;;;;7.97;2.50;;;18.10;99.90;;;;;;4853861;29;20033;-75
2021/09/24 11:56:31;;;;;;;8.32;2.83;;;18.10;99.90;;;;;;4855448;29;20424;-74
2021/09/24 11:59:07;;;;;;;6.80;2.55;;;18.10;99.90;;;;;;4858051;29;20037;-74
2021/09/24 12:01:34;;;;;;;16.02;3.65;;;18.10;99.90;;;;;;4871079;29;20029;-72
2021/09/24 12:04:00;;;;;;;5.72;2.42;;;18.10;99.90;;;;;;4870254;29;20026;-71
2021/09/24 12:06:29;;;;;;;7.15;2.63;;;18.00;99.90;;;;;;4870043;29;20041;-72
2021/09/24 12:09:11;;;;;;;14.48;3.28;;;18.00;99.90;;;;;;4870532;29;20033;-74
2021/09/24 12:11:51;;;;;;;5.57;2.95;;;18.00;99.90;;;;;;4871556;29;20025;-74
2021/09/24 12:14:29;;;;;;;16.90;3.42;;;18.00;99.90;;;;;;4870723;29;20025;-72
2021/09/24 12:16:55;;;;;;;8.80;2.90;;;18.00;99.90;;;;;;4870698;29;20038;-73
2021/09/24 12:19:23;;;;;;;6.28;3.05;;;18.00;99.90;;;;;;4870486;29;20089;-72
2021/09/24 12:21:55;;;;;;;11.25;3.53;;;18.00;99.90;;;;;;4871061;29;20026;-72
2021/09/24 12:24:37;;;;;;;8.18;3.63;;;18.00;99.90;;;;;;4871311;29;20069;-72
2021/09/24 12:27:14;;;;;;;4.82;3.00;;;18.00;99.90;;;;;;4871346;29;20041;-72
2021/09/24 12:29:42;;;;;;;17.77;3.65;;;18.00;99.90;;;;;;4871046;29;20029;-73
2021/09/24 12:32:16;;;;;;;8.63;3.65;;;18.00;99.90;;;;;;4883554;29;20056;-74
2021/09/24 12:35:03;;;;;;;14.85;4.53;;;17.90;99.90;;;;;;4889365;29;20032;-73
2021/09/24 12:37:39;;;;;;;10.55;5.15;;;17.90;99.90;;;;;;4889564;29;20040;-73
2021/09/24 12:40:14;;;;;;;16.15;3.92;;;18.00;99.90;;;;;;4889705;29;20044;-75
2021/09/24 12:42:41;;;;;;;;;;;18.00;99.90;;;;;;4889674;29;20092;-72
2021/09/24 12:45:10;;;;;;;16.95;5.05;;;18.10;99.90;;;;;;4889337;29;19963;-71
2021/09/24 12:47:37;;;;;;;13.60;4.38;;;18.10;99.90;;;;;;4889115;29;20050;-70
2021/09/24 12:50:07;;;;;;;12.48;5.88;;;18.00;99.90;;;;;;4888834;29;20068;-74
2021/09/24 12:52:35;;;;;;;9.23;4.05;;;18.10;99.90;;;;;;4889653;29;20029;-75